Time;durP1;ratioP1;P1;durP2;ratioP2;P2;SDS_P1;SDS_P2;PMS_P1;PMS_P2;Temp;Humidity;BMP_temperature;BMP_pressure;BME280_temperature;BME280_humidity;BME280_pressure;Samples;Min_cycle;Max_cycle;Signal;HPM_P1;HPM_P2
2022/09/03 00:00:05;;;;;;;1.65;1.42;;;;;;;13.90;62.87;100953.84;1678834;84;21540;-78
2022/09/03 00:02:46;;;;;;;3.02;1.30;;;;;;;13.93;63.10;100959.84;1674113;84;21035;-78
2022/09/03 00:05:33;;;;;;;3.45;1.77;;;;;;;13.87;63.04;100956.16;1670427;85;21553;-78
2022/09/03 00:08:21;;;;;;;3.77;1.37;;;;;;;13.87;62.81;100962.73;1648780;84;21076;-78
2022/09/03 00:11:12;;;;;;;3.83;1.60;;;;;;;13.83;63.05;100954.58;1680522;84;21040;-78
2022/09/03 00:13:50;;;;;;;2.45;1.40;;;;;;;13.81;62.77;100954.63;1674548;85;21123;-78
2022/09/03 00:16:21;;;;;;;2.50;1.37;;;;;;;13.77;62.78;100953.06;1670684;84;21134;-78
2022/09/03 00:19:01;;;;;;;2.52;1.55;;;;;;;13.75;62.80;100948.30;1670540;84;21565;-78
2022/09/03 00:21:37;;;;;;;;;;;;;;;13.70;62.98;100952.05;1672700;84;21070;-78
2022/09/03 00:24:09;;;;;;;3.83;1.42;;;;;;;13.68;63.12;100953.88;1670828;85;20215;-78
2022/09/03 00:26:38;;;;;;;4.80;1.87;;;;;;;13.66;63.00;100948.66;1640863;85;21021;-78
2022/09/03 00:29:17;;;;;;;3.15;1.65;;;;;;;13.63;63.07;100947.94;1671102;84;21105;-78
2022/09/03 00:31:55;;;;;;;3.20;1.40;;;;;;;13.56;62.95;100946.03;1670995;84;20923;-78
2022/09/03 00:34:38;;;;;;;2.30;1.25;;;;;;;13.57;63.22;100950.37;1670755;84;21067;-78
2022/09/03 00:37:06;;;;;;;2.20;1.42;;;;;;;13.53;63.24;100951.42;1671057;84;21135;-78
2022/09/03 00:39:34;;;;;;;5.10;1.40;;;;;;;13.49;63.28;100938.81;1671086;84;21477;-78
2022/09/03 00:42:25;;;;;;;5.72;2.30;;;;;;;13.51;63.49;100943.58;1670744;84;21241;-78
2022/09/03 00:45:18;;;;;;;2.60;1.40;;;;;;;13.51;63.44;100942.25;1655976;85;21075;-78
2022/09/03 00:48:15;;;;;;;4.40;1.55;;;;;;;13.50;63.52;100942.34;1655380;84;21034;-78
2022/09/03 00:51:00;;;;;;;3.00;1.60;;;;;;;13.42;63.23;100938.69;1670925;84;21052;-78
2022/09/03 00:53:38;;;;;;;3.80;1.60;;;;;;;13.33;63.28;100934.66;1671036;84;21896;-78
2022/09/03 00:56:28;;;;;;;3.83;1.52;;;;;;;13.28;63.38;100931.34;1647846;85;21132;-78
2022/09/03 00:59:10;;;;;;;4.00;1.70;;;;;;;13.22;63.55;100938.14;1667951;84;21530;-78
2022/09/03 01:02:08;;;;;;;5.20;1.57;;;;;;;13.13;63.39;100935.37;1659893;85;21063;-78
2022/09/03 01:04:49;;;;;;;2.60;1.47;;;;;;;13.12;63.66;100940.72;1619677;86;21051;-78
2022/09/03 01:07:21;;;;;;;3.65;1.70;;;;;;;13.08;63.69;100937.36;1644660;87;21089;-78
2022/09/03 01:13:52;;;;;;;2.65;1.70;;;;;;;13.05;63.69;100932.22;1499858;93;21099;-78
2022/09/03 01:16:26;;;;;;;4.17;1.75;;;;;;;13.01;63.63;100934.55;1469992;96;21656;-78
2022/09/03 01:22:37;;;;;;;4.95;1.65;;;;;;;12.94;63.90;100933.06;1362480;103;21208;-78
2022/09/03 01:25:41;;;;;;;3.00;1.50;;;;;;;12.94;63.93;100935.69;1360038;105;21228;-78
2022/09/03 01:28:19;;;;;;;4.37;1.72;;;;;;;12.90;64.12;100940.22;1359845;104;21721;-78
2022/09/03 01:31:09;;;;;;;6.28;1.85;;;;;;;12.85;63.86;100937.37;1359804;104;21689;-78
2022/09/03 01:34:10;;;;;;;4.65;1.70;;;;;;;12.82;64.01;100934.39;1360009;105;22493;-78
2022/09/03 01:37:08;;;;;;;3.15;1.60;;;;;;;12.81;64.25;100931.84;1360031;105;21176;-78
2022/09/03 01:39:52;;;;;;;1.72;1.25;;;;;;;12.80;64.41;100939.31;1360057;105;21710;-78
2022/09/03 01:42:30;;;;;;;2.80;1.45;;;;;;;12.74;64.39;100932.51;1359630;105;21173;-78
2022/09/03 01:45:40;;;;;;;3.45;1.57;;;;;;;12.68;64.52;100934.06;1360047;104;21172;-78
2022/09/03 01:48:29;;;;;;;5.08;1.77;;;;;;;12.66;64.64;100928.84;1359995;105;21197;-78
2022/09/03 01:51:14;;;;;;;2.15;1.45;;;;;;;12.66;64.58;100930.16;1422999;98;21090;-78
2022/09/03 01:54:04;;;;;;;3.85;1.75;;;;;;;12.62;64.56;100925.09;1447837;97;21140;-78
2022/09/03 01:57:08;;;;;;;3.08;1.90;;;;;;;12.62;64.73;100927.25;1450943;98;21665;-78
2022/09/03 01:59:52;;;;;;;2.85;1.30;;;;;;;12.58;64.72;100930.05;1584840;86;21061;-78
2022/09/03 02:02:25;;;;;;;3.02;1.45;;;;;;;12.52;64.66;100934.22;1664191;84;21063;-78
2022/09/03 02:05:13;;;;;;;4.80;1.82;;;;;;;12.47;64.92;100930.43;1663415;86;21074;-78
2022/09/03 02:08:00;;;;;;;3.22;1.60;;;;;;;12.44;64.83;100931.43;1645272;86;21184;-78
2022/09/03 02:10:40;;;;;;;4.03;1.60;;;;;;;12.37;65.02;100929.07;1644227;86;21562;-78
2022/09/03 02:13:25;;;;;;;2.72;1.72;;;;;;;12.28;64.97;100928.48;1652552;86;21564;-78
2022/09/03 02:15:56;;;;;;;3.75;1.62;;;;;;;12.27;65.37;100929.38;1644889;87;21067;-78
2022/09/03 02:18:28;;;;;;;3.17;1.62;;;;;;;12.27;65.24;100934.63;1645266;87;21087;-78
2022/09/03 02:20:56;;;;;;;2.72;1.80;;;;;;;12.22;65.37;100933.97;1644844;84;21598;-78
2022/09/03 02:23:24;;;;;;;4.37;1.70;;;;;;;12.15;65.65;100938.17;1645153;87;21068;-78
2022/09/03 02:25:58;;;;;;;4.85;1.67;;;;;;;12.11;65.84;100933.48;1645010;86;21001;-78
2022/09/03 02:28:28;;;;;;;4.80;1.77;;;;;;;12.07;65.78;100941.06;1641328;86;21014;-78
2022/09/03 02:30:55;;;;;;;4.45;1.70;;;;;;;12.01;65.93;100939.96;1630934;86;21086;-78
2022/09/03 02:33:23;;;;;;;4.55;1.82;;;;;;;11.99;66.16;100937.84;1643944;87;21138;-78
2022/09/03 02:35:51;;;;;;;5.30;1.90;;;;;;;11.95;66.51;100935.78;1644884;87;21043;-78
2022/09/03 02:38:25;;;;;;;3.15;1.72;;;;;;;11.93;66.38;100944.62;1645073;87;21544;-78
2022/09/03 02:40:53;;;;;;;4.10;1.77;;;;;;;11.86;66.51;100940.04;1644922;86;21683;-78
2022/09/03 02:43:37;;;;;;;3.90;1.60;;;;;;;11.80;66.50;100931.00;1645191;86;21075;-78
2022/09/03 02:46:10;;;;;;;3.12;1.80;;;;;;;11.78;66.79;100931.06;1644855;87;21872;-78
2022/09/03 02:48:37;;;;;;;3.98;1.90;;;;;;;11.79;66.77;100934.08;1644693;87;21094;-78
2022/09/03 02:51:04;;;;;;;5.05;2.33;;;;;;;11.82;66.92;100931.34;1644930;87;21032;-78
2022/09/03 02:53:31;;;;;;;2.47;1.67;;;;;;;11.81;66.75;100932.27;1644759;87;21015;-78
2022/09/03 02:56:00;;;;;;;2.90;1.72;;;;;;;11.75;66.75;100936.85;1644861;87;21553;-78
2022/09/03 02:58:30;;;;;;;2.43;1.63;;;;;;;11.70;66.79;100930.92;1645058;85;21151;-78
2022/09/03 03:00:57;;;;;;;3.87;1.70;;;;;;;11.66;67.10;100933.23;1645242;84;21083;-78
2022/09/03 03:03:25;;;;;;;2.83;1.83;;;;;;;11.62;67.27;100928.54;1644806;87;21585;-78
2022/09/03 03:05:59;;;;;;;2.77;1.40;;;;;;;11.61;67.52;100932.94;1644904;86;21492;-78
2022/09/03 03:08:27;;;;;;;3.85;1.77;;;;;;;11.62;67.69;100929.85;1644894;86;21095;-78
2022/09/03 03:10:58;;;;;;;3.00;1.60;;;;;;;11.61;67.65;100932.94;1608423;87;21153;-78
2022/09/03 03:13:26;;;;;;;;;;;;;;;11.56;67.68;100930.06;1647280;87;21063;-78
2022/09/03 03:16:02;;;;;;;3.80;1.80;;;;;;;11.50;68.03;100923.25;1638306;87;20166;-78
2022/09/03 03:18:29;;;;;;;3.90;2.25;;;;;;;11.50;68.11;100929.81;1635082;87;21011;-78
2022/09/03 03:20:56;;;;;;;4.87;1.80;;;;;;;11.48;68.10;100921.11;1626280;87;21641;-78
2022/09/03 03:23:23;;;;;;;4.23;1.83;;;;;;;11.50;68.27;100923.67;1645113;87;21136;-78
2022/09/03 03:25:51;;;;;;;5.80;2.20;;;;;;;11.48;68.10;100917.18;1644793;87;21099;-78
2022/09/03 03:28:19;;;;;;;2.77;1.73;;;;;;;11.48;68.47;100919.80;1644838;87;21005;-78
2022/09/03 03:30:47;;;;;;;3.67;1.85;;;;;;;11.50;68.54;100919.73;1629629;87;21542;-78
2022/09/03 03:33:15;;;;;;;5.12;1.90;;;;;;;11.44;68.44;100926.50;1642261;87;21081;-78
2022/09/03 03:35:42;;;;;;;2.60;1.70;;;;;;;11.44;68.57;100932.60;1649873;86;22029;-78
2022/09/03 03:38:09;;;;;;;3.57;1.60;;;;;;;11.43;68.91;100932.67;1654726;86;21067;-78
2022/09/03 03:40:38;;;;;;;3.80;1.93;;;;;;;11.45;68.90;100933.03;1654535;86;21074;-78
2022/09/03 03:43:05;;;;;;;3.10;1.80;;;;;;;11.38;68.85;100931.49;1651650;86;21051;-78
2022/09/03 03:45:33;;;;;;;3.45;1.80;;;;;;;11.34;69.04;100930.75;1644950;87;21059;-78
2022/09/03 03:48:00;;;;;;;3.77;2.00;;;;;;;11.35;69.18;100931.14;1645159;87;21097;-78
2022/09/03 03:50:28;;;;;;;4.70;1.87;;;;;;;11.33;69.13;100933.41;1644720;87;21056;-78
2022/09/03 03:53:00;;;;;;;3.77;1.97;;;;;;;11.32;69.40;100944.36;1644785;87;21075;-78
2022/09/03 03:55:27;;;;;;;3.92;1.65;;;;;;;11.31;69.49;100942.66;1644946;87;21643;-78
2022/09/03 03:57:54;;;;;;;3.72;1.70;;;;;;;11.26;69.38;100952.43;1644929;87;21538;-78
2022/09/03 04:00:21;;;;;;;2.60;1.80;;;;;;;11.20;69.69;100942.59;1644701;87;21140;-78
2022/09/03 04:02:48;;;;;;;3.30;1.85;;;;;;;11.18;69.79;100947.88;1644707;83;21016;-78
2022/09/03 04:05:15;;;;;;;3.03;1.93;;;;;;;11.21;69.94;100941.67;1644889;86;21071;-78
2022/09/03 04:07:43;;;;;;;3.58;2.00;;;;;;;11.17;70.05;100947.48;1644981;87;21388;-78
2022/09/03 04:10:10;;;;;;;4.30;1.70;;;;;;;11.13;70.02;100947.15;1644917;87;21071;-78
2022/09/03 04:12:37;;;;;;;4.07;1.97;;;;;;;11.12;70.18;100945.44;1644882;87;21130;-78
2022/09/03 04:15:05;;;;;;;4.57;2.10;;;;;;;11.12;70.34;100941.05;1644897;87;21041;-78
2022/09/03 04:17:32;;;;;;;3.20;2.00;;;;;;;11.13;70.36;100948.00;1644748;87;21085;-78
2022/09/03 04:19:59;;;;;;;3.70;1.73;;;;;;;11.09;70.35;100949.02;1645074;87;21060;-78
2022/09/03 04:22:28;;;;;;;5.10;1.97;;;;;;;11.06;70.45;100953.51;1644750;87;21588;-78
2022/09/03 04:24:55;;;;;;;4.77;2.00;;;;;;;11.06;70.53;100956.13;1645043;86;21076;-78
2022/09/03 04:27:22;;;;;;;6.20;2.07;;;;;;;11.02;70.52;100957.96;1644783;87;21055;-78
2022/09/03 04:29:49;;;;;;;4.07;1.90;;;;;;;10.99;70.58;100959.37;1640373;87;21160;-78
2022/09/03 04:35:02;;;;;;;4.80;1.90;;;;;;;10.93;70.94;100956.48;1645168;87;21036;-78
2022/09/03 04:37:29;;;;;;;2.90;2.03;;;;;;;10.89;71.08;100957.91;1644923;87;21130;-78
2022/09/03 04:39:56;;;;;;;4.87;2.27;;;;;;;10.88;71.18;100962.30;1644698;87;21013;-78
2022/09/03 04:42:23;;;;;;;4.22;1.80;;;;;;;10.85;71.47;100962.39;1645136;86;20987;-78
2022/09/03 04:44:50;;;;;;;5.20;2.10;;;;;;;10.88;71.68;100961.45;1623911;87;21433;-78
2022/09/03 04:47:17;;;;;;;3.77;2.17;;;;;;;10.88;71.76;100960.14;1645091;87;21048;-77
2022/09/03 04:49:44;;;;;;;6.43;2.00;;;;;;;10.90;72.03;100967.52;1644891;87;21141;-77
2022/09/03 04:52:11;;;;;;;3.23;1.80;;;;;;;10.93;72.09;100969.59;1644761;87;21067;-78
2022/09/03 04:54:38;;;;;;;4.43;1.90;;;;;;;10.96;72.32;100967.79;1644693;87;22293;-77
2022/09/03 04:57:05;;;;;;;3.87;2.10;;;;;;;10.99;72.63;100970.31;1644814;87;21501;-78
2022/09/03 04:59:32;;;;;;;4.57;2.03;;;;;;;11.04;72.69;100971.90;1644870;87;21052;-78
2022/09/03 05:01:59;;;;;;;4.10;2.43;;;;;;;11.12;72.81;100979.55;1644816;83;21142;-78
2022/09/03 05:04:27;;;;;;;4.20;2.37;;;;;;;11.17;72.61;100978.96;1644744;87;21047;-77
2022/09/03 05:06:54;;;;;;;3.63;2.00;;;;;;;11.19;72.74;100977.13;1644840;87;21021;-78
2022/09/03 05:09:21;;;;;;;3.67;2.30;;;;;;;11.22;72.69;100983.59;1644884;87;21628;-78
2022/09/03 05:11:48;;;;;;;3.80;2.10;;;;;;;11.27;72.86;100980.38;1645006;87;21311;-78
2022/09/03 05:14:15;;;;;;;4.60;2.60;;;;;;;11.32;72.85;100980.25;1644927;87;21494;-78
2022/09/03 05:16:42;;;;;;;3.45;2.17;;;;;;;11.39;72.84;100983.10;1644870;87;21068;-78
2022/09/03 05:19:09;;;;;;;4.60;2.30;;;;;;;11.46;72.70;100971.48;1644866;87;21509;-77
2022/09/03 05:21:37;;;;;;;4.00;2.20;;;;;;;11.52;72.88;100977.84;1645128;86;21103;-78
2022/09/03 05:24:04;;;;;;;4.03;2.27;;;;;;;11.55;72.70;100969.88;1644873;87;21539;-78
2022/09/03 05:26:36;;;;;;;6.27;2.70;;;;;;;11.59;72.83;100967.56;1645169;87;21116;-78
2022/09/03 05:29:09;;;;;;;4.30;2.10;;;;;;;11.69;72.85;100969.42;1644841;87;21056;-77
2022/09/03 05:31:37;;;;;;;6.60;2.30;;;;;;;11.78;72.87;100966.52;1625853;87;21504;-78
2022/09/03 05:34:05;;;;;;;4.03;2.50;;;;;;;11.83;72.81;100967.23;1644925;87;21045;-78
2022/09/03 05:36:36;;;;;;;4.47;2.33;;;;;;;11.91;72.68;100968.76;1645174;87;21099;-77
2022/09/03 05:39:05;;;;;;;3.27;2.37;;;;;;;11.94;72.53;100973.45;1644977;86;21570;-78
2022/09/03 05:41:32;;;;;;;2.83;1.97;;;;;;;11.93;72.44;100974.83;1644972;86;21004;-78
2022/09/03 05:44:00;;;;;;;6.15;2.58;;;;;;;11.99;72.36;100977.24;1645227;87;21500;-78
2022/09/03 05:46:31;;;;;;;4.83;2.00;;;;;;;11.99;72.25;100976.78;1644936;87;21031;-78
2022/09/03 05:49:01;;;;;;;5.30;2.53;;;;;;;12.02;72.42;100971.88;1623604;86;21017;-78
2022/09/03 05:51:29;;;;;;;6.47;2.42;;;;;;;12.06;72.26;100974.83;1630828;87;21062;-82
2022/09/03 05:53:57;;;;;;;6.47;2.60;;;;;;;12.09;72.27;100973.41;1609008;87;21084;-81
2022/09/03 05:56:28;;;;;;;4.00;2.30;;;;;;;12.12;72.10;100973.76;1644928;86;21545;-80
2022/09/03 05:59:04;;;;;;;4.45;2.27;;;;;;;12.08;72.01;100973.44;1645025;87;21099;-80
2022/09/03 06:01:35;;;;;;;3.90;2.70;;;;;;;12.12;72.26;100975.07;1644976;87;21632;-78
2022/09/03 06:04:10;;;;;;;4.00;2.70;;;;;;;12.15;72.22;100969.70;1644980;83;21955;-81
2022/09/03 06:06:41;;;;;;;4.03;2.50;;;;;;;12.24;72.42;100970.69;1654147;86;21063;-79
2022/09/03 06:09:20;;;;;;;6.80;2.40;;;;;;;12.25;72.08;100971.11;1649911;86;21130;-80
2022/09/03 06:11:51;;;;;;;4.15;2.70;;;;;;;12.26;71.98;100974.98;1634878;86;21056;-79
2022/09/03 06:14:18;;;;;;;3.45;2.20;;;;;;;12.31;72.36;100969.58;1646193;86;21493;-78
2022/09/03 06:16:51;;;;;;;6.30;2.30;;;;;;;12.39;72.55;100970.17;1644251;87;22130;-78
2022/09/03 06:19:19;;;;;;;4.05;1.90;;;;;;;12.50;72.59;100974.59;1619764;86;21549;-78
2022/09/03 06:21:47;;;;;;;5.60;2.55;;;;;;;12.55;72.11;100978.34;1618391;87;21544;-82
2022/09/03 06:24:18;;;;;;;4.72;2.02;;;;;;;12.58;71.92;100974.75;1618692;87;21302;-78
2022/09/03 06:26:45;;;;;;;3.33;2.15;;;;;;;12.63;72.15;100970.19;1627396;86;21532;-78
2022/09/03 06:29:13;;;;;;;3.40;2.20;;;;;;;12.75;72.48;100973.70;1627537;86;21123;-79
2022/09/03 06:31:40;;;;;;;5.42;2.00;;;;;;;12.88;72.43;100978.88;1629907;86;21497;-78
2022/09/03 06:34:07;;;;;;;6.70;2.15;;;;;;;13.01;72.39;100975.34;1628073;86;21731;-79
2022/09/03 06:36:36;;;;;;;4.00;2.40;;;;;;;13.06;72.14;100974.71;1636458;87;21094;-79
2022/09/03 06:39:04;;;;;;;3.60;1.90;;;;;;;13.17;72.34;100983.05;1627063;86;21063;-80
2022/09/03 06:41:34;;;;;;;5.00;2.17;;;;;;;13.23;71.85;100981.95;1617748;86;22995;-80
2022/09/03 06:44:10;;;;;;;4.35;2.40;;;;;;;13.31;71.90;100983.87;1616227;87;21083;-78
2022/09/03 06:46:43;;;;;;;4.40;2.35;;;;;;;13.44;72.21;100991.27;1597612;86;21146;-80
2022/09/03 06:49:12;;;;;;;5.58;2.05;;;;;;;13.53;71.80;100992.25;1624647;86;21297;-81
2022/09/03 06:51:39;;;;;;;3.15;2.22;;;;;;;13.58;71.11;100990.29;1620867;86;21082;-81
2022/09/03 06:54:09;;;;;;;3.85;2.17;;;;;;;13.64;70.81;100993.14;1615046;87;21997;-84
2022/09/03 06:56:38;;;;;;;;;;;;;;;13.68;70.65;100990.30;1618327;88;21528;-80
2022/09/03 06:59:12;;;;;;;4.17;2.30;;;;;;;13.75;70.67;100986.50;1615714;87;20180;-79
2022/09/03 07:01:40;;;;;;;3.10;2.05;;;;;;;13.80;70.53;100991.13;1615882;87;21545;-80
2022/09/03 07:04:08;;;;;;;2.85;2.25;;;;;;;13.88;70.68;100987.30;1658315;83;21113;-83
2022/09/03 07:06:38;;;;;;;4.15;2.12;;;;;;;13.98;70.48;100991.28;1668137;85;21184;-79
2022/09/03 07:09:10;;;;;;;3.17;2.20;;;;;;;14.05;70.30;100995.39;1668335;85;20967;-81
2022/09/03 07:11:45;;;;;;;4.28;1.85;;;;;;;14.12;69.85;100994.66;1667921;85;21118;-80
2022/09/03 07:14:07;;;;;;;3.83;2.27;;;;;;;14.23;69.96;100992.42;1667076;85;21098;-77
2022/09/03 07:16:36;;;;;;;4.53;2.10;;;;;;;14.35;69.96;100991.88;1635134;87;21069;-79
2022/09/03 07:19:04;;;;;;;4.67;2.27;;;;;;;14.48;69.55;100991.75;1670708;85;21945;-77
2022/09/03 07:21:35;;;;;;;3.08;2.22;;;;;;;14.58;69.43;100990.93;1668416;85;21051;-77
2022/09/03 07:24:04;;;;;;;4.62;2.30;;;;;;;14.69;69.08;100989.14;1667979;85;21038;-80
2022/09/03 07:26:35;;;;;;;7.47;2.30;;;;;;;14.78;68.73;100995.31;1668150;85;21074;-76
2022/09/03 07:29:02;;;;;;;5.87;2.15;;;;;;;14.83;68.36;100993.33;1666630;85;21299;-77
2022/09/03 07:31:36;;;;;;;5.45;2.22;;;;;;;14.85;68.05;100992.77;1667813;84;22383;-77
2022/09/03 07:34:08;;;;;;;3.70;1.85;;;;;;;14.93;68.42;100999.03;1667861;84;21516;-77
2022/09/03 07:36:42;;;;;;;3.62;1.95;;;;;;;15.04;68.34;100994.58;1667881;84;21063;-77
2022/09/03 07:39:12;;;;;;;4.85;2.40;;;;;;;15.12;68.13;100997.25;1667970;84;22388;-78
2022/09/03 07:41:46;;;;;;;6.35;2.10;;;;;;;15.21;67.70;100997.28;1668243;84;26321;-80
2022/09/03 07:44:14;;;;;;;4.42;2.60;;;;;;;15.30;67.48;101002.16;1666752;84;22103;-76
2022/09/03 07:46:42;;;;;;;4.17;2.25;;;;;;;15.38;66.96;101004.44;1667671;84;21106;-81
2022/09/03 07:49:09;;;;;;;6.83;2.52;;;;;;;15.45;66.64;101005.84;1635122;86;21077;-77
2022/09/03 07:51:38;;;;;;;4.12;2.45;;;;;;;15.50;66.49;101002.99;1667035;84;21117;-77
2022/09/03 07:54:09;;;;;;;3.25;2.27;;;;;;;15.58;66.57;101006.13;1667986;84;21125;-76
2022/09/03 07:56:39;;;;;;;5.50;2.87;;;;;;;15.67;66.48;101003.50;1667312;84;21239;-76
2022/09/03 07:59:08;;;;;;;7.03;2.72;;;;;;;15.77;66.31;100998.20;1634075;87;20985;-76
2022/09/03 08:01:36;;;;;;;4.83;2.55;;;;;;;15.86;66.17;100991.59;1634909;87;21111;-76
2022/09/03 08:04:05;;;;;;;6.42;2.52;;;;;;;15.98;66.10;100987.86;1639391;86;21009;-80
2022/09/03 08:06:34;;;;;;;5.03;2.62;;;;;;;16.09;65.87;100991.76;1635113;86;21673;-77
2022/09/03 08:09:05;;;;;;;5.33;2.25;;;;;;;16.22;65.85;100985.77;1567200;89;21159;-77
2022/09/03 08:11:36;;;;;;;5.33;2.35;;;;;;;16.37;65.96;100987.23;1616565;87;22277;-78
2022/09/03 08:14:07;;;;;;;3.70;2.50;;;;;;;16.49;65.61;100986.13;1634510;86;21140;-77
2022/09/03 08:16:41;;;;;;;5.17;2.50;;;;;;;16.64;65.14;100983.61;1625022;86;21075;-79
2022/09/03 08:19:10;;;;;;;5.55;2.60;;;;;;;16.85;64.11;100981.63;1634777;86;21097;-78
2022/09/03 08:21:37;;;;;;;6.90;2.87;;;;;;;16.85;64.11;100981.63;1625002;86;21194;-79
2022/09/03 08:24:05;;;;;;;7.20;2.85;;;;;;;16.98;64.34;100980.03;1625730;86;21099;-79
2022/09/03 08:26:40;;;;;;;4.12;2.40;;;;;;;17.11;64.47;100984.20;1625508;86;21115;-79
2022/09/03 08:29:09;;;;;;;6.53;2.60;;;;;;;17.24;63.66;100977.28;1625668;86;22314;-79
2022/09/03 08:31:37;;;;;;;4.67;2.50;;;;;;;17.41;63.53;100984.28;1625678;86;21547;-79
2022/09/03 08:34:06;;;;;;;3.80;2.55;;;;;;;17.52;63.27;100984.53;1625301;86;21203;-77
2022/09/03 08:36:37;;;;;;;8.05;2.83;;;;;;;17.70;63.37;100977.79;1635694;86;28463;-78
2022/09/03 08:39:08;;;;;;;3.87;2.42;;;;;;;17.87;63.06;100982.99;1626094;86;21067;-78
2022/09/03 08:41:59;;;;;;;5.37;2.83;;;;;;;18.03;62.78;100978.98;1635115;86;21049;-79
2022/09/03 08:44:49;;;;;;;5.03;2.75;;;;;;;18.21;62.52;100970.42;1624400;86;21707;-77
2022/09/03 08:47:45;;;;;;;3.90;2.40;;;;;;;18.37;62.06;100972.98;1617987;87;22416;-84
2022/09/03 08:50:31;;;;;;;4.45;2.77;;;;;;;18.48;62.18;100971.41;1632797;87;21150;-78
2022/09/03 08:53:23;;;;;;;5.65;2.75;;;;;;;18.70;62.08;100969.58;1665633;84;21741;-78
2022/09/03 08:56:01;;;;;;;5.03;2.67;;;;;;;18.87;61.22;100967.71;1652442;85;21091;-78
2022/09/03 08:58:33;;;;;;;4.58;2.65;;;;;;;18.99;61.26;100960.80;1656739;84;21061;-78
2022/09/03 09:01:23;;;;;;;4.87;2.70;;;;;;;19.15;60.96;100956.22;1613455;86;21625;-77
2022/09/03 09:04:19;;;;;;;5.62;2.25;;;;;;;19.31;60.85;100953.41;1640104;84;20957;-78
2022/09/03 09:07:00;;;;;;;4.92;2.77;;;;;;;19.47;60.69;100950.13;1635897;84;21071;-78
2022/09/03 09:09:48;;;;;;;6.03;3.00;;;;;;;19.60;60.07;100948.85;1654700;86;21062;-78
2022/09/03 09:12:48;;;;;;;9.60;3.00;;;;;;;19.73;59.68;100945.80;1659396;84;21088;-78
2022/09/03 09:15:59;;;;;;;5.53;2.60;;;;;;;19.82;59.16;100949.16;1659424;85;21146;-78
2022/09/03 09:18:53;;;;;;;6.15;3.00;;;;;;;19.91;58.78;100950.34;1643545;84;21062;-78
2022/09/03 09:21:28;;;;;;;5.05;2.60;;;;;;;20.10;58.24;100947.29;1652131;84;21059;-78
2022/09/03 09:24:02;;;;;;;5.70;2.98;;;;;;;20.22;58.03;100942.45;1643021;84;21014;-78
2022/09/03 09:26:29;;;;;;;3.87;3.02;;;;;;;20.37;58.25;100944.55;1643195;84;21066;-78
2022/09/03 09:29:07;;;;;;;5.37;2.87;;;;;;;20.57;58.04;100943.17;1656051;83;21142;-78
2022/09/03 09:31:37;;;;;;;5.05;2.85;;;;;;;20.74;57.50;100942.47;1648078;84;21064;-77
2022/09/03 09:34:07;;;;;;;4.00;2.70;;;;;;;20.82;56.46;100933.45;1671188;84;20917;-78
2022/09/03 09:36:42;;;;;;;7.12;3.08;;;;;;;20.88;55.99;100939.18;1670776;84;22142;-78
2022/09/03 09:39:11;;;;;;;6.70;3.10;;;;;;;20.99;55.99;100934.91;1671059;85;21024;-79
2022/09/03 09:41:38;;;;;;;7.85;3.25;;;;;;;21.08;55.41;100932.89;1670737;84;21141;-78
2022/09/03 09:44:05;;;;;;;4.80;2.70;;;;;;;21.14;54.82;100935.10;1670968;84;21052;-78
2022/09/03 09:46:39;;;;;;;6.17;2.40;;;;;;;21.21;54.67;100927.04;1670780;84;21065;-78
2022/09/03 09:49:36;;;;;;;5.10;2.72;;;;;;;21.32;54.41;100919.10;1671135;84;21080;-78
2022/09/03 09:52:08;;;;;;;7.12;2.90;;;;;;;21.41;54.15;100927.42;1676976;84;21043;-78
2022/09/03 09:54:35;;;;;;;4.95;2.90;;;;;;;21.60;54.09;100925.08;1671034;84;21092;-78
2022/09/03 09:57:07;;;;;;;6.00;3.30;;;;;;;21.74;53.93;100925.37;1670660;85;22181;-78
2022/09/03 09:59:36;;;;;;;9.40;3.20;;;;;;;21.82;53.17;100921.64;1671073;84;21139;-78
2022/09/03 10:02:15;;;;;;;5.87;2.50;;;;;;;21.88;52.65;100922.99;1646105;84;28218;-77
2022/09/03 10:04:44;;;;;;;5.30;2.83;;;;;;;21.99;52.62;100922.53;1634575;84;21091;-76
2022/09/03 10:07:31;;;;;;;8.40;2.83;;;;;;;22.18;52.48;100919.83;1655432;84;21151;-77
2022/09/03 10:10:04;;;;;;;7.87;3.08;;;;;;;22.33;52.06;100932.45;1598884;86;21111;-76
2022/09/03 10:12:43;;;;;;;5.70;2.58;;;;;;;22.33;51.18;100934.63;1617223;88;21056;-76
2022/09/03 10:15:33;;;;;;;8.33;3.17;;;;;;;22.38;51.01;100923.60;1596318;87;21063;-76
2022/09/03 10:18:29;;;;;;;7.42;3.15;;;;;;;22.54;50.89;100914.75;1606378;88;21097;-76
2022/09/03 10:21:11;;;;;;;10.95;3.17;;;;;;;22.69;50.41;100922.86;1615701;88;21182;-77
2022/09/03 10:24:08;;;;;;;7.37;2.87;;;;;;;22.79;49.94;100922.99;1617256;88;21080;-76
2022/09/03 10:26:36;;;;;;;6.58;2.85;;;;;;;22.86;49.69;100918.87;1617505;87;21075;-77
2022/09/03 10:29:06;;;;;;;4.45;2.87;;;;;;;22.99;49.76;100916.06;1617285;87;21072;-77
2022/09/03 10:32:01;;;;;;;5.22;2.87;;;;;;;23.06;49.37;100915.95;1617493;88;21131;-77
2022/09/03 10:34:58;;;;;;;4.28;2.90;;;;;;;23.20;49.39;100909.96;1617286;87;21118;-76
2022/09/03 10:37:50;;;;;;;7.67;2.80;;;;;;;23.38;49.27;100903.91;1616995;86;21056;-78
2022/09/03 10:40:31;;;;;;;7.90;2.80;;;;;;;23.45;48.72;100896.25;1666162;85;21595;-76
2022/09/03 10:43:16;;;;;;;9.65;3.10;;;;;;;23.25;47.73;100897.91;1625013;86;21252;-77
2022/09/03 10:45:51;;;;;;;6.30;2.58;;;;;;;22.97;47.87;100902.46;1666460;86;21063;-77
2022/09/03 10:48:46;;;;;;;5.87;2.33;;;;;;;22.69;47.65;100905.50;1666521;85;21918;-77
2022/09/03 10:51:40;;;;;;;5.55;2.90;;;;;;;22.58;48.31;100910.00;1666361;85;20955;-77
2022/09/03 10:54:34;;;;;;;7.53;2.58;;;;;;;22.70;48.48;100910.38;1664652;85;21622;-76
2022/09/03 10:57:37;;;;;;;4.03;2.27;;;;;;;22.85;48.42;100901.11;1666112;84;21031;-76
2022/09/03 11:00:14;;;;;;;5.47;2.15;;;;;;;23.15;48.37;100904.48;1664354;84;21549;-76
2022/09/03 11:03:15;;;;;;;3.90;2.50;;;;;;;23.48;47.82;100899.16;1666100;85;21784;-76
2022/09/03 11:06:05;;;;;;;6.55;2.45;;;;;;;23.70;47.52;100894.20;1670053;84;21052;-76
2022/09/03 11:08:44;;;;;;;6.03;2.65;;;;;;;23.92;47.51;100891.91;1680515;84;21044;-76
2022/09/03 11:11:19;;;;;;;4.40;2.17;;;;;;;23.96;46.41;100886.64;1672096;84;21032;-76
2022/09/03 11:14:06;;;;;;;6.47;2.20;;;;;;;24.07;45.78;100886.56;1670604;84;21048;-77
2022/09/03 11:16:54;;;;;;;5.47;2.62;;;;;;;24.07;45.54;100887.06;1670714;84;21358;-77
2022/09/03 11:19:26;;;;;;;4.78;2.70;;;;;;;24.26;46.00;100876.45;1670659;84;21071;-77
2022/09/03 11:21:54;;;;;;;4.87;2.60;;;;;;;24.46;45.74;100874.23;1670213;84;21498;-77
2022/09/03 11:24:25;;;;;;;4.25;2.50;;;;;;;24.38;45.25;100872.69;1670621;84;21123;-77
2022/09/03 11:27:03;;;;;;;3.95;2.50;;;;;;;24.35;45.46;100870.27;1671055;84;21076;-77
2022/09/03 11:29:51;;;;;;;5.87;2.95;;;;;;;24.19;44.14;100866.77;1633149;84;21581;-77
2022/09/03 11:32:25;;;;;;;4.67;2.30;;;;;;;24.16;44.52;100866.17;1670856;84;21064;-77
2022/09/03 11:34:54;;;;;;;3.47;2.50;;;;;;;24.04;44.12;100856.03;1670273;84;21059;-77
2022/09/03 11:37:29;;;;;;;4.97;2.52;;;;;;;24.16;44.45;100853.62;1671174;85;21048;-77
2022/09/03 11:40:18;;;;;;;6.40;2.72;;;;;;;24.23;43.82;100855.29;1670591;84;21056;-77
2022/09/03 11:42:46;;;;;;;5.28;3.15;;;;;;;24.22;43.86;100854.45;1671614;84;21253;-77
2022/09/03 11:45:31;;;;;;;3.67;2.37;;;;;;;24.28;43.52;100850.38;1670803;84;21036;-78
2022/09/03 11:47:59;;;;;;;4.65;2.77;;;;;;;24.25;43.39;100850.66;1670705;84;21075;-77
2022/09/03 11:50:32;;;;;;;5.33;2.80;;;;;;;24.36;43.47;100842.98;1670971;84;21056;-77
2022/09/03 11:53:17;;;;;;;7.45;3.12;;;;;;;24.60;43.63;100841.34;1670644;84;21506;-77
2022/09/03 11:56:00;;;;;;;3.98;2.42;;;;;;;24.68;43.24;100841.52;1680213;84;21141;-77
2022/09/03 11:58:37;;;;;;;6.67;2.62;;;;;;;24.69;42.95;100839.17;1671665;84;21103;-77
2022/09/03 12:01:12;;;;;;;5.65;2.72;;;;;;;24.63;42.47;100835.71;1670985;84;21091;-77
2022/09/03 12:03:50;;;;;;;4.65;2.62;;;;;;;24.49;42.84;100829.74;1670688;84;21120;-77
2022/09/03 12:06:34;;;;;;;3.98;2.67;;;;;;;24.42;42.60;100833.09;1646913;85;21067;-77
2022/09/03 12:09:09;;;;;;;5.85;2.60;;;;;;;24.22;42.45;100833.02;1651472;86;21976;-77
2022/09/03 12:11:51;;;;;;;3.45;2.40;;;;;;;24.39;42.93;100827.52;1644738;87;21032;-77